Wetterdaten: Woche 07.03.11 - 13.03.11 (KW10)
Datum Zeit Temperatur Luftfeuchte Luftdruck Niederschlag Windrichtung Sonnenschein Solar Wind
07.03.2011 00:00 -1,5 C 78 % 1028,1 hPa 0,0 l/m O-NO 0,00 h 0 W/m 11,1 km/h (2 Bft)
07.03.2011 01:00 -2,0 C 78 % 1028,3 hPa 0,0 l/m N-NO 0,00 h 0 W/m 13,7 km/h (3 Bft)
07.03.2011 02:00 -2,4 C 78 % 1028,3 hPa 0,0 l/m NO 0,00 h 0 W/m 11,8 km/h (2 Bft)
07.03.2011 03:00 -2,7 C 77 % 1028,4 hPa 0,0 l/m NO 0,00 h 0 W/m 12,6 km/h (3 Bft)
07.03.2011 04:00 -2,6 C 75 % 1028,3 hPa 0,0 l/m O-NO 0,00 h 0 W/m 11,4 km/h (2 Bft)
07.03.2011 05:00 -2,6 C 73 % 1028,4 hPa 0,0 l/m O-NO 0,00 h 0 W/m 14,9 km/h (3 Bft)
07.03.2011 06:00 -2,7 C 70 % 1028,7 hPa 0,0 l/m O 0,00 h 5 W/m 17,3 km/h (3 Bft)
07.03.2011 07:00 -2,6 C 68 % 1029,0 hPa 0,0 l/m O-NO 0,00 h 30 W/m 18,0 km/h (3 Bft)
07.03.2011 08:00 -1,6 C 62 % 1029,4 hPa 0,0 l/m O-NO 0,00 h 53 W/m 24,0 km/h (4 Bft)
07.03.2011 09:00 -0,0 C 54 % 1029,6 hPa 0,0 l/m O-SO 0,75 h 343 W/m 25,3 km/h (4 Bft)
07.03.2011 10:00 1,6 C 48 % 1029,5 hPa 0,0 l/m O 0,83 h 468 W/m 30,7 km/h (5 Bft)
07.03.2011 11:00 2,9 C 44 % 1029,4 hPa 0,0 l/m O-NO 1,00 h 605 W/m 34,5 km/h (5 Bft)
07.03.2011 12:00 4,3 C 39 % 1029,2 hPa 0,0 l/m O-NO 1,00 h 627 W/m 32,7 km/h (5 Bft)
07.03.2011 13:00 5,4 C 36 % 1028,7 hPa 0,0 l/m O 1,00 h 594 W/m 35,1 km/h (5 Bft)
07.03.2011 14:00 5,8 C 34 % 1028,4 hPa 0,0 l/m O-NO 0,83 h 437 W/m 31,9 km/h (5 Bft)
07.03.2011 15:00 5,7 C 33 % 1028,2 hPa 0,0 l/m NO 1,00 h 378 W/m 31,7 km/h (5 Bft)
07.03.2011 16:00 5,1 C 33 % 1028,3 hPa 0,0 l/m NO 0,58 h 168 W/m 30,1 km/h (5 Bft)
07.03.2011 17:00 3,7 C 38 % 1028,7 hPa 0,0 l/m O-NO 0,00 h 30 W/m 23,9 km/h (4 Bft)
07.03.2011 18:00 2,1 C 44 % 1029,2 hPa 0,0 l/m O-NO 0,00 h 7 W/m 15,7 km/h (3 Bft)
07.03.2011 19:00 0,8 C 47 % 1029,5 hPa 0,0 l/m O-NO 0,00 h 0 W/m 11,5 km/h (2 Bft)
07.03.2011 20:00 -0,0 C 48 % 1029,4 hPa 0,0 l/m O-NO 0,00 h 0 W/m 12,5 km/h (3 Bft)
07.03.2011 21:00 -0,8 C 51 % 1029,4 hPa 0,0 l/m NO 0,00 h 0 W/m 10,1 km/h (2 Bft)
07.03.2011 22:00 -1,6 C 54 % 1029,3 hPa 0,0 l/m N-NO 0,00 h 0 W/m 6,2 km/h (2 Bft)
07.03.2011 23:00 -2,2 C 56 % 1029,1 hPa 0,0 l/m N-NO 0,00 h 0 W/m 5,6 km/h (1 Bft)
08.03.2011 00:00 -2,8 C 57 % 1028,9 hPa 0,0 l/m N 0,00 h 0 W/m 5,2 km/h (1 Bft)
08.03.2011 01:00 -3,5 C 61 % 1028,9 hPa 0,0 l/m N 0,00 h 0 W/m 4,8 km/h (1 Bft)
08.03.2011 02:00 -4,0 C 64 % 1028,9 hPa 0,0 l/m N 0,00 h 0 W/m 5,3 km/h (1 Bft)
08.03.2011 03:00 -4,5 C 68 % 1028,8 hPa 0,0 l/m N 0,00 h 0 W/m 5,2 km/h (1 Bft)
08.03.2011 04:00 -4,9 C 69 % 1028,9 hPa 0,0 l/m N 0,00 h 0 W/m 4,0 km/h (1 Bft)
08.03.2011 05:00 -5,3 C 73 % 1029,1 hPa 0,0 l/m N 0,00 h 0 W/m 1,5 km/h (1 Bft)
08.03.2011 06:00 -5,6 C 75 % 1029,3 hPa 0,0 l/m N 0,00 h 6 W/m 0,7 km/h (0 Bft)
08.03.2011 07:00 -5,6 C 77 % 1029,4 hPa 0,0 l/m N 0,08 h 38 W/m 0,5 km/h (0 Bft)
08.03.2011 08:00 -4,2 C 73 % 1029,6 hPa 0,0 l/m N 0,00 h 89 W/m 1,1 km/h (0 Bft)
08.03.2011 09:00 -1,5 C 67 % 1029,6 hPa 0,0 l/m N-NO 0,92 h 311 W/m 2,8 km/h (1 Bft)
08.03.2011 10:00 2,2 C 58 % 1029,2 hPa 0,0 l/m S-SW 0,75 h 421 W/m 7,5 km/h (2 Bft)
08.03.2011 11:00 5,3 C 54 % 1028,7 hPa 0,0 l/m S 1,00 h 559 W/m 11,7 km/h (2 Bft)
08.03.2011 12:00 7,9 C 51 % 1028,1 hPa 0,0 l/m S 1,00 h 581 W/m 12,4 km/h (3 Bft)
08.03.2011 13:00 10,1 C 51 % 1027,1 hPa 0,0 l/m S-SW 1,00 h 547 W/m 13,7 km/h (3 Bft)
08.03.2011 14:00 11,1 C 51 % 1026,1 hPa 0,0 l/m S 0,92 h 431 W/m 14,0 km/h (3 Bft)
08.03.2011 15:00 11,4 C 50 % 1025,3 hPa 0,0 l/m SW 1,00 h 342 W/m 13,6 km/h (3 Bft)
08.03.2011 16:00 11,2 C 51 % 1024,8 hPa 0,0 l/m W-SW 0,67 h 181 W/m 12,4 km/h (3 Bft)
08.03.2011 17:00 9,7 C 55 % 1024,6 hPa 0,0 l/m SW 0,00 h 45 W/m 6,8 km/h (2 Bft)
08.03.2011 18:00 6,2 C 67 % 1024,7 hPa 0,0 l/m N 0,08 h 7 W/m 1,2 km/h (1 Bft)
08.03.2011 19:00 3,7 C 76 % 1024,7 hPa 0,0 l/m N 0,00 h 0 W/m 0,1 km/h (0 Bft)
08.03.2011 20:00 2,4 C 80 % 1024,4 hPa 0,0 l/m N 0,00 h 0 W/m 0,0 km/h (0 Bft)
08.03.2011 21:00 1,0 C 85 % 1024,1 hPa 0,0 l/m N 0,00 h 0 W/m 0,0 km/h (0 Bft)
08.03.2011 22:00 0,6 C 87 % 1023,9 hPa 0,0 l/m N 0,00 h 0 W/m 0,0 km/h (0 Bft)
08.03.2011 23:00 -0,2 C 90 % 1023,5 hPa 0,0 l/m N 0,00 h 0 W/m 0,4 km/h (0 Bft)
09.03.2011 00:00 -0,2 C 89 % 1023,3 hPa 0,0 l/m N 0,00 h 0 W/m 0,8 km/h (0 Bft)
09.03.2011 01:00 -0,8 C 91 % 1023,3 hPa 0,0 l/m N 0,00 h 0 W/m 0,7 km/h (0 Bft)
09.03.2011 02:00 -1,1 C 92 % 1023,2 hPa 0,0 l/m N 0,00 h 0 W/m 0,0 km/h (0 Bft)
09.03.2011 03:00 -0,5 C 92 % 1023,2 hPa 0,0 l/m N 0,00 h 0 W/m 0,7 km/h (0 Bft)
09.03.2011 04:00 0,1 C 91 % 1022,9 hPa 0,0 l/m N 0,00 h 0 W/m 1,6 km/h (1 Bft)
09.03.2011 05:00 -0,5 C 92 % 1022,8 hPa 0,0 l/m N 0,00 h 0 W/m 0,7 km/h (0 Bft)
09.03.2011 06:00 -0,8 C 93 % 1022,4 hPa 0,0 l/m N 0,00 h 6 W/m 1,2 km/h (1 Bft)
09.03.2011 07:00 -0,3 C 93 % 1022,5 hPa 0,0 l/m SO 0,00 h 39 W/m 2,3 km/h (1 Bft)
09.03.2011 08:00 2,2 C 88 % 1022,5 hPa 0,0 l/m SO 0,00 h 115 W/m 6,1 km/h (2 Bft)
09.03.2011 09:00 4,1 C 81 % 1022,4 hPa 0,0 l/m S-SW 1,00 h 342 W/m 12,6 km/h (3 Bft)
09.03.2011 10:00 6,6 C 72 % 1022,2 hPa 0,0 l/m S 0,83 h 452 W/m 12,8 km/h (3 Bft)
09.03.2011 11:00 9,1 C 57 % 1021,8 hPa 0,0 l/m W-SW 1,00 h 579 W/m 21,9 km/h (4 Bft)
09.03.2011 12:00 10,3 C 52 % 1020,9 hPa 0,0 l/m W-SW 1,00 h 600 W/m 23,2 km/h (4 Bft)
09.03.2011 13:00 11,1 C 49 % 1020,0 hPa 0,0 l/m SW 1,00 h 577 W/m 22,6 km/h (4 Bft)
09.03.2011 14:00 11,8 C 47 % 1019,3 hPa 0,0 l/m W-SW 0,92 h 463 W/m 22,0 km/h (4 Bft)
09.03.2011 15:00 12,0 C 46 % 1018,8 hPa 0,0 l/m W-SW 0,75 h 304 W/m 18,9 km/h (3 Bft)
09.03.2011 16:00 11,1 C 49 % 1018,2 hPa 0,0 l/m SW 0,00 h 93 W/m 15,8 km/h (3 Bft)
09.03.2011 17:00 10,5 C 50 % 1018,2 hPa 0,0 l/m W-SW 0,08 h 54 W/m 16,4 km/h (3 Bft)
09.03.2011 18:00 9,2 C 53 % 1018,4 hPa 0,0 l/m W-SW 0,00 h 7 W/m 13,2 km/h (3 Bft)
09.03.2011 19:00 8,2 C 59 % 1018,7 hPa 0,0 l/m SW 0,00 h 0 W/m 12,0 km/h (2 Bft)
09.03.2011 20:00 7,7 C 61 % 1018,9 hPa 0,0 l/m SW 0,00 h 0 W/m 10,9 km/h (2 Bft)
09.03.2011 21:00 7,6 C 61 % 1019,2 hPa 0,0 l/m W-SW 0,00 h 0 W/m 9,1 km/h (2 Bft)
09.03.2011 22:00 6,4 C 65 % 1019,2 hPa 0,0 l/m SW 0,00 h 0 W/m 6,3 km/h (2 Bft)
09.03.2011 23:00 5,5 C 69 % 1018,9 hPa 0,0 l/m SW 0,00 h 0 W/m 6,5 km/h (2 Bft)
10.03.2011 00:00 4,8 C 72 % 1018,9 hPa 0,0 l/m W-SW 0,00 h 0 W/m 2,7 km/h (1 Bft)
10.03.2011 01:00 3,4 C 79 % 1018,7 hPa 0,0 l/m N 0,00 h 0 W/m 0,8 km/h (0 Bft)
10.03.2011 02:00 4,2 C 78 % 1018,4 hPa 0,0 l/m S-SW 0,00 h 0 W/m 7,0 km/h (2 Bft)
10.03.2011 03:00 5,2 C 75 % 1018,0 hPa 0,0 l/m SW 0,00 h 0 W/m 14,5 km/h (3 Bft)
10.03.2011 04:00 5,2 C 76 % 1018,1 hPa 0,0 l/m SW 0,00 h 0 W/m 13,8 km/h (3 Bft)
10.03.2011 05:00 6,2 C 71 % 1018,4 hPa 0,0 l/m W-SW 0,00 h 0 W/m 16,6 km/h (3 Bft)
10.03.2011 06:00 6,3 C 69 % 1018,7 hPa 0,0 l/m W-SW 0,00 h 0 W/m 17,6 km/h (3 Bft)
10.03.2011 07:00 6,2 C 71 % 1019,0 hPa 0,0 l/m W-SW 0,00 h 30 W/m 16,6 km/h (3 Bft)
10.03.2011 08:00 6,7 C 72 % 1019,2 hPa 0,0 l/m SW 0,00 h 96 W/m 19,6 km/h (3 Bft)
10.03.2011 09:00 7,8 C 70 % 1019,3 hPa 0,0 l/m W 0,33 h 220 W/m 22,8 km/h (4 Bft)
10.03.2011 10:00 8,8 C 67 % 1019,3 hPa 0,0 l/m W-SW 0,33 h 295 W/m 24,1 km/h (4 Bft)
10.03.2011 11:00 9,3 C 65 % 1019,1 hPa 0,0 l/m W-SW 0,42 h 335 W/m 25,2 km/h (4 Bft)
10.03.2011 12:00 11,0 C 59 % 1018,6 hPa 0,0 l/m W 0,83 h 546 W/m 30,8 km/h (5 Bft)
10.03.2011 13:00 11,0 C 56 % 1017,9 hPa 0,0 l/m W-SW 0,58 h 428 W/m 31,1 km/h (5 Bft)
10.03.2011 14:00 11,4 C 53 % 1017,4 hPa 0,0 l/m W-SW 0,67 h 373 W/m 31,5 km/h (5 Bft)
10.03.2011 15:00 12,3 C 48 % 1017,0 hPa 0,0 l/m W-SW 1,00 h 423 W/m 30,2 km/h (5 Bft)
10.03.2011 16:00 11,3 C 51 % 1016,9 hPa 0,0 l/m W 0,42 h 162 W/m 24,4 km/h (4 Bft)
10.03.2011 17:00 10,1 C 55 % 1016,9 hPa 0,0 l/m W 0,00 h 37 W/m 18,0 km/h (3 Bft)
10.03.2011 18:00 8,9 C 60 % 1017,0 hPa 0,0 l/m W 0,00 h 5 W/m 13,3 km/h (3 Bft)
10.03.2011 19:00 7,8 C 63 % 1017,3 hPa 0,0 l/m W-SW 0,00 h 0 W/m 11,7 km/h (2 Bft)
10.03.2011 20:00 7,3 C 66 % 1017,6 hPa 0,0 l/m W-SW 0,00 h 0 W/m 11,8 km/h (2 Bft)
10.03.2011 21:00 5,8 C 72 % 1018,2 hPa 0,0 l/m SW 0,00 h 0 W/m 4,9 km/h (1 Bft)
10.03.2011 22:00 4,9 C 76 % 1018,4 hPa 0,0 l/m SW 0,00 h 0 W/m 6,7 km/h (2 Bft)
10.03.2011 23:00 3,9 C 79 % 1018,8 hPa 0,0 l/m SW 0,00 h 0 W/m 4,1 km/h (1 Bft)
11.03.2011 00:00 2,8 C 85 % 1018,9 hPa 0,0 l/m SW 0,00 h 0 W/m 6,2 km/h (2 Bft)
11.03.2011 01:00 3,9 C 84 % 1018,9 hPa 0,0 l/m SW 0,00 h 0 W/m 8,6 km/h (2 Bft)
11.03.2011 02:00 4,0 C 85 % 1019,3 hPa 0,0 l/m SW 0,00 h 0 W/m 11,7 km/h (2 Bft)
11.03.2011 03:00 3,2 C 87 % 1019,0 hPa 0,0 l/m SW 0,00 h 0 W/m 9,1 km/h (2 Bft)
11.03.2011 04:00 3,7 C 86 % 1019,0 hPa 0,0 l/m SW 0,00 h 0 W/m 10,8 km/h (2 Bft)
11.03.2011 05:00 4,1 C 83 % 1019,2 hPa 0,0 l/m SW 0,00 h 0 W/m 10,3 km/h (2 Bft)
11.03.2011 06:00 3,8 C 86 % 1019,4 hPa 0,0 l/m SW 0,00 h 0 W/m 8,6 km/h (2 Bft)
11.03.2011 07:00 3,7 C 87 % 1019,7 hPa 0,0 l/m S-SW 0,00 h 19 W/m 6,1 km/h (2 Bft)
11.03.2011 08:00 4,7 C 83 % 1020,1 hPa 0,0 l/m SW 0,00 h 48 W/m 5,6 km/h (1 Bft)
11.03.2011 09:00 6,0 C 78 % 1020,4 hPa 0,0 l/m W 0,00 h 93 W/m 7,6 km/h (2 Bft)
11.03.2011 10:00 6,9 C 73 % 1020,6 hPa 0,0 l/m W-SW 0,00 h 178 W/m 14,8 km/h (3 Bft)
11.03.2011 11:00 7,9 C 67 % 1020,4 hPa 0,0 l/m SW 0,00 h 266 W/m 15,0 km/h (3 Bft)
11.03.2011 12:00 9,2 C 59 % 1019,9 hPa 0,0 l/m W-SW 0,92 h 506 W/m 18,2 km/h (3 Bft)
11.03.2011 13:00 10,3 C 56 % 1018,8 hPa 0,0 l/m SW 0,75 h 533 W/m 16,8 km/h (3 Bft)
11.03.2011 14:00 11,0 C 54 % 1018,0 hPa 0,0 l/m SW 1,00 h 509 W/m 20,5 km/h (4 Bft)
11.03.2011 15:00 11,2 C 53 % 1017,4 hPa 0,0 l/m SW 1,00 h 375 W/m 17,0 km/h (3 Bft)
11.03.2011 16:00 10,8 C 54 % 1017,1 hPa 0,0 l/m W-SW 0,67 h 186 W/m 14,5 km/h (3 Bft)
11.03.2011 17:00 9,7 C 58 % 1016,9 hPa 0,0 l/m SW 0,00 h 43 W/m 8,3 km/h (2 Bft)
11.03.2011 18:00 7,2 C 67 % 1016,8 hPa 0,0 l/m SW 0,00 h 8 W/m 2,1 km/h (1 Bft)
11.03.2011 19:00 4,9 C 76 % 1017,2 hPa 0,0 l/m SO 0,00 h 0 W/m 2,1 km/h (1 Bft)
11.03.2011 20:00 3,5 C 82 % 1017,3 hPa 0,0 l/m N 0,00 h 0 W/m 3,5 km/h (1 Bft)
11.03.2011 21:00 2,7 C 84 % 1017,2 hPa 0,0 l/m N 0,00 h 0 W/m 0,3 km/h (0 Bft)
11.03.2011 22:00 2,1 C 86 % 1016,9 hPa 0,0 l/m N 0,00 h 0 W/m 1,6 km/h (1 Bft)
11.03.2011 23:00 1,5 C 87 % 1016,4 hPa 0,0 l/m N 0,00 h 0 W/m 1,9 km/h (1 Bft)
12.03.2011 00:00 1,3 C 87 % 1015,8 hPa 0,0 l/m N 0,00 h 0 W/m 3,2 km/h (1 Bft)
12.03.2011 01:00 0,9 C 88 % 1015,3 hPa 0,0 l/m N 0,00 h 0 W/m 2,5 km/h (1 Bft)
12.03.2011 02:00 0,9 C 88 % 1014,7 hPa 0,0 l/m N 0,00 h 0 W/m 4,7 km/h (1 Bft)
12.03.2011 03:00 0,3 C 89 % 1014,0 hPa 0,0 l/m N 0,00 h 0 W/m 5,2 km/h (1 Bft)
12.03.2011 04:00 -0,2 C 91 % 1013,7 hPa 0,0 l/m N 0,00 h 0 W/m 3,5 km/h (1 Bft)
12.03.2011 05:00 -0,6 C 92 % 1013,2 hPa 0,0 l/m N 0,00 h 0 W/m 3,3 km/h (1 Bft)
12.03.2011 06:00 -0,7 C 92 % 1012,8 hPa 0,0 l/m N 0,08 h 10 W/m 3,7 km/h (1 Bft)
12.03.2011 07:00 -0,4 C 93 % 1012,2 hPa 0,0 l/m N 0,17 h 49 W/m 4,3 km/h (1 Bft)
12.03.2011 08:00 1,2 C 89 % 1011,9 hPa 0,0 l/m N 0,17 h 116 W/m 6,5 km/h (2 Bft)
12.03.2011 09:00 3,7 C 83 % 1011,4 hPa 0,0 l/m N 1,00 h 362 W/m 6,4 km/h (2 Bft)
12.03.2011 10:00 6,6 C 74 % 1011,0 hPa 0,0 l/m N 1,00 h 451 W/m 4,7 km/h (1 Bft)
12.03.2011 11:00 10,5 C 58 % 1010,1 hPa 0,0 l/m N 1,00 h 623 W/m 6,7 km/h (2 Bft)
12.03.2011 12:00 13,9 C 45 % 1009,0 hPa 0,0 l/m W-SW 1,00 h 633 W/m 12,1 km/h (2 Bft)
12.03.2011 13:00 14,9 C 39 % 1008,3 hPa 0,0 l/m SW 1,00 h 564 W/m 16,1 km/h (3 Bft)
12.03.2011 14:00 15,1 C 39 % 1007,7 hPa 0,0 l/m S-SO 0,75 h 330 W/m 9,9 km/h (2 Bft)
12.03.2011 15:00 14,5 C 43 % 1007,5 hPa 0,0 l/m S-SW 0,00 h 164 W/m 7,5 km/h (2 Bft)
12.03.2011 16:00 13,0 C 50 % 1007,1 hPa 0,0 l/m S-SW 0,00 h 58 W/m 5,1 km/h (1 Bft)
12.03.2011 17:00 12,0 C 54 % 1006,8 hPa 0,0 l/m S-SW 0,00 h 45 W/m 1,9 km/h (1 Bft)
12.03.2011 18:00 9,6 C 62 % 1006,6 hPa 0,0 l/m N 0,17 h 13 W/m 0,9 km/h (0 Bft)
12.03.2011 19:00 6,6 C 72 % 1006,4 hPa 0,0 l/m S-SW 0,00 h 0 W/m 1,6 km/h (1 Bft)
12.03.2011 20:00 5,3 C 77 % 1006,1 hPa 0,0 l/m N 0,00 h 0 W/m 0,1 km/h (0 Bft)
12.03.2011 21:00 4,9 C 80 % 1005,9 hPa 0,0 l/m N 0,00 h 0 W/m 0,7 km/h (0 Bft)
12.03.2011 22:00 4,9 C 76 % 1006,1 hPa 0,0 l/m N 0,00 h 0 W/m 0,8 km/h (0 Bft)
12.03.2011 23:00 5,2 C 75 % 1006,1 hPa 0,0 l/m S-SW 0,00 h 0 W/m 0,8 km/h (0 Bft)
13.03.2011 00:00 5,5 C 76 % 1006,1 hPa 0,0 l/m S-SW 0,00 h 0 W/m 1,3 km/h (1 Bft)
13.03.2011 01:00 4,7 C 81 % 1006,1 hPa 0,0 l/m W-NW 0,00 h 0 W/m 3,5 km/h (1 Bft)
13.03.2011 02:00 5,5 C 78 % 1006,1 hPa 0,0 l/m W-NW 0,00 h 0 W/m 3,6 km/h (1 Bft)
13.03.2011 03:00 5,1 C 82 % 1006,1 hPa 0,0 l/m N 0,00 h 0 W/m 0,8 km/h (0 Bft)
13.03.2011 04:00 4,7 C 84 % 1005,9 hPa 0,0 l/m W-NW 0,00 h 0 W/m 1,3 km/h (1 Bft)
13.03.2011 05:00 5,1 C 82 % 1005,8 hPa 0,0 l/m W-NW 0,00 h 0 W/m 4,5 km/h (1 Bft)
13.03.2011 06:00 5,4 C 79 % 1005,7 hPa 0,0 l/m W-NW 0,00 h 0 W/m 3,1 km/h (1 Bft)
13.03.2011 07:00 6,2 C 78 % 1005,6 hPa 0,0 l/m N-NO 0,00 h 8 W/m 6,0 km/h (2 Bft)
13.03.2011 08:00 6,1 C 81 % 1005,7 hPa 0,0 l/m N-NO 0,00 h 23 W/m 3,5 km/h (1 Bft)
13.03.2011 09:00 6,6 C 79 % 1005,3 hPa 0,0 l/m N-NO 0,00 h 65 W/m 3,2 km/h (1 Bft)
13.03.2011 10:00 7,5 C 75 % 1005,0 hPa 0,0 l/m N-NO 0,00 h 107 W/m 2,9 km/h (1 Bft)
13.03.2011 11:00 8,2 C 71 % 1004,7 hPa 0,0 l/m N-NO 0,00 h 127 W/m 3,9 km/h (1 Bft)
13.03.2011 12:00 8,8 C 69 % 1004,3 hPa 0,0 l/m N 0,00 h 97 W/m 6,1 km/h (2 Bft)
13.03.2011 13:00 8,5 C 70 % 1004,0 hPa 0,0 l/m NO 0,00 h 65 W/m 8,0 km/h (2 Bft)
13.03.2011 14:00 8,2 C 72 % 1004,0 hPa 0,0 l/m NO 0,00 h 77 W/m 5,9 km/h (2 Bft)
13.03.2011 15:00 8,3 C 72 % 1004,1 hPa 0,0 l/m NO 0,00 h 78 W/m 5,3 km/h (1 Bft)
13.03.2011 16:00 8,3 C 73 % 1004,2 hPa 0,0 l/m NO 0,00 h 49 W/m 5,1 km/h (1 Bft)
13.03.2011 17:00 7,9 C 76 % 1004,6 hPa 0,0 l/m NO 0,00 h 15 W/m 5,2 km/h (1 Bft)
13.03.2011 18:00 7,4 C 78 % 1005,4 hPa 0,0 l/m NO 0,00 h 5 W/m 4,8 km/h (1 Bft)
13.03.2011 19:00 7,1 C 79 % 1005,8 hPa 0,0 l/m NO 0,00 h 0 W/m 3,9 km/h (1 Bft)
13.03.2011 20:00 6,7 C 80 % 1006,4 hPa 0,0 l/m NO 0,00 h 0 W/m 4,4 km/h (1 Bft)
13.03.2011 21:00 6,1 C 83 % 1007,0 hPa 0,0 l/m S-SO 0,00 h 0 W/m 1,9 km/h (1 Bft)
13.03.2011 22:00 5,9 C 84 % 1007,8 hPa 0,0 l/m S 0,00 h 0 W/m 2,3 km/h (1 Bft)
13.03.2011 23:00 5,8 C 85 % 1008,5 hPa 0,0 l/m N 0,00 h 0 W/m 0,9 km/h (0 Bft)
Min-Datum _ 08.03.11 07.03.11 13.03.11 - - - - 08.03.11
_ Min-Zeit 06:50 15:05 13:20 - - - - 04:50
Minimum _ -5,8 C 32 % 1003,9 hPa - - - - 0,0 km/h (0 Bft)
Max-Datum _ 12.03.11 09.03.11 07.03.11 07.03.11 - 07.03.11 11.03.11 07.03.11
_ Max-Zeit 14:10 06:20 09:00 00:00 - 09:05 12:55 11:55
Maximum _ 15,4 C 94 % 1029,7 hPa 0,0 l/m - 0,08 h 735 W/m 43,5 km/h
O (6 Bft)
Durchschnitt _ 4,8 C 69 % 1018,5 hPa #0,0 l/m SW #36:15 h 236 W/m 9,9 km/h (2 Bft)